Time;durP1;ratioP1;P1;durP2;ratioP2;P2;SDS_P1;SDS_P2;PMS_P1;PMS_P2;Temp;Humidity;BMP_temperature;BMP_pressure;BME280_temperature;BME280_humidity;BME280_pressure;Samples;Min_cycle;Max_cycle;Signal;HPM_P1;HPM_P2
2023/11/02 00:01:03;;;;;;;;;23.60;22.00;;;;;12.45;100.00;97894.41;6234028;28;96537;-68
2023/11/02 00:04:06;;;;;;;;;22.20;19.20;;;;;12.40;100.00;97897.88;6223957;28;96688;-68
2023/11/02 00:07:10;;;;;;;;;22.00;20.00;;;;;12.38;100.00;97896.50;6228473;28;96519;-68
2023/11/02 00:10:15;;;;;;;;;24.60;23.60;;;;;12.37;100.00;97889.47;6213882;28;96429;-68
2023/11/02 00:13:23;;;;;;;;;23.00;20.25;;;;;12.33;100.00;97894.56;6211237;28;96932;-68
2023/11/02 00:16:27;;;;;;;;;20.20;17.40;;;;;12.29;100.00;97890.75;6214671;28;96449;-64
2023/11/02 00:19:32;;;;;;;;;23.00;22.00;;;;;12.28;100.00;97891.81;6220383;28;96541;-65
2023/11/02 00:22:38;;;;;;;;;22.75;21.00;;;;;12.24;100.00;97900.69;6231090;28;96385;-64
2023/11/02 00:25:48;;;;;;;;;23.75;22.00;;;;;12.18;100.00;97896.31;6211545;28;97065;-66
2023/11/02 00:28:51;;;;;;;;;23.00;22.00;;;;;12.17;100.00;97894.69;6237034;27;96685;-66
2023/11/02 00:31:57;;;;;;;;;21.60;21.00;;;;;12.15;100.00;97892.25;6215766;28;98391;-64
2023/11/02 00:35:00;;;;;;;;;22.60;22.20;;;;;12.01;100.00;97867.53;6232524;28;97053;-64
2023/11/02 00:38:11;;;;;;;;;20.80;19.00;;;;;12.13;100.00;97875.47;6235978;28;96309;-63
2023/11/02 00:41:15;;;;;;;;;22.00;20.75;;;;;12.13;100.00;97870.06;6223197;28;96682;-65
2023/11/02 00:44:18;;;;;;;;;20.50;20.50;;;;;12.14;100.00;97866.28;6230421;28;98771;-63
2023/11/02 00:47:22;;;;;;;;;22.00;21.00;;;;;12.05;100.00;97857.84;6212443;28;96834;-63
2023/11/02 00:50:56;;;;;;;;;24.20;23.20;;;;;12.07;100.00;97854.91;6235942;28;96355;-63
2023/11/02 00:54:00;;;;;;;;;19.00;18.20;;;;;12.07;100.00;97852.97;6221199;28;97319;-63
2023/11/02 00:57:04;;;;;;;;;23.00;21.00;;;;;12.08;100.00;97851.91;6220699;28;96394;-63
2023/11/02 01:00:28;;;;;;;;;17.80;15.80;;;;;12.09;100.00;97842.75;6234140;28;96423;-63
2023/11/02 01:03:34;;;;;;;;;16.50;16.50;;;;;12.10;100.00;97844.38;6224277;28;98974;-64
2023/11/02 01:06:37;;;;;;;;;16.00;15.00;;;;;12.12;100.00;97844.94;6237326;28;96911;-63
2023/11/02 01:09:57;;;;;;;;;22.00;19.00;;;;;12.13;100.00;97833.06;6215602;28;96517;-64
2023/11/02 01:13:03;;;;;;;;;19.00;18.00;;;;;12.06;100.00;97827.06;6214690;28;96395;-63
2023/11/02 01:16:08;;;;;;;;;19.00;18.00;;;;;12.01;100.00;97820.81;6232406;28;96377;-63
2023/11/02 01:19:48;;;;;;;;;17.00;16.60;;;;;12.06;100.00;97821.66;6236530;28;97702;-63
2023/11/02 01:22:54;;;;;;;;;16.00;15.00;;;;;12.01;100.00;97815.41;6224661;28;97557;-63
2023/11/02 01:25:58;;;;;;;;;20.40;19.00;;;;;12.00;100.00;97828.09;6230071;28;96549;-68
2023/11/02 01:29:01;;;;;;;;;19.00;17.50;;;;;11.90;100.00;97817.19;6211984;28;97070;-69
2023/11/02 01:32:06;;;;;;;;;19.50;18.50;;;;;11.96;100.00;97824.28;6211969;28;96307;-69
2023/11/02 01:35:36;;;;;;;;;17.20;16.00;;;;;11.96;100.00;97813.47;6217997;28;96652;-69
2023/11/02 01:38:41;;;;;;;;;21.33;20.33;;;;;11.94;100.00;97814.78;6243472;27;96725;-69
2023/11/02 01:41:47;;;;;;;;;17.75;17.50;;;;;11.90;100.00;97817.19;6217838;28;97893;-68
2023/11/02 01:44:59;;;;;;;;;18.00;16.00;;;;;11.87;100.00;97812.31;6228165;28;96882;-68
2023/11/02 01:48:07;;;;;;;;;18.00;17.60;;;;;11.87;100.00;97809.59;6235999;28;96261;-68
2023/11/02 01:51:23;;;;;;;;;15.60;15.00;;;;;11.87;100.00;97808.78;6230251;28;96516;-68
2023/11/02 01:54:44;;;;;;;;;19.50;17.00;;;;;11.89;100.00;97795.84;6200482;28;97473;-69
2023/11/02 01:57:55;;;;;;;;;15.50;14.00;;;;;11.92;100.00;97801.56;6213087;28;96409;-69
2023/11/02 02:01:10;;;;;;;;;15.60;15.00;;;;;11.91;100.00;97796.41;6211515;28;97170;-64
2023/11/02 02:04:22;;;;;;;;;14.00;13.00;;;;;11.91;100.00;97793.69;6258258;22;96656;-65
2023/11/02 02:07:37;;;;;;;;;16.00;15.00;;;;;11.87;100.00;97793.41;6240179;28;96344;-65
2023/11/02 02:10:58;;;;;;;;;17.00;17.00;;;;;11.85;100.00;97794.72;6241957;28;97107;-65
2023/11/02 02:14:14;;;;;;;;;18.00;18.00;;;;;11.79;100.00;97785.75;6242555;28;97757;-64
2023/11/02 02:17:23;;;;;;;;;17.60;16.60;;;;;11.78;100.00;97781.41;6233414;28;96244;-65
2023/11/02 02:20:33;;;;;;;;;15.75;15.50;;;;;11.74;100.00;97772.19;6250997;28;97368;-64
2023/11/02 02:23:46;;;;;;;;;15.60;15.00;;;;;11.70;100.00;97777.28;6237577;28;98505;-65
2023/11/02 02:27:28;;;;;;;;;18.00;16.00;;;;;11.72;100.00;97768.94;6243841;28;96397;-64
2023/11/02 02:30:47;;;;;;;;;17.00;17.00;;;;;11.65;100.00;97771.81;6225225;28;96336;-64
2023/11/02 02:34:32;;;;;;;;;18.00;17.40;;;;;11.64;100.00;97772.06;6254570;28;96193;-65
2023/11/02 02:37:43;;;;;;;;;16.60;15.60;;;;;11.68;100.00;97770.50;6250178;28;96708;-65
2023/11/02 02:40:55;;;;;;;;;16.00;16.00;;;;;11.59;100.00;97758.53;6243918;28;96638;-65
2023/11/02 02:44:00;;;;;;;;;12.75;12.00;;;;;11.72;100.00;97763.53;6255659;27;96260;-64
2023/11/02 02:47:04;;;;;;;;;13.60;11.80;;;;;11.78;100.00;97770.63;6249530;28;96237;-65
2023/11/02 02:50:11;;;;;;;;;10.60;10.00;;;;;11.88;100.00;97762.59;6235048;28;96195;-65
2023/11/02 02:53:19;;;;;;;;;11.00;11.00;;;;;11.96;100.00;97764.84;6252950;28;96498;-65
2023/11/02 02:56:24;;;;;;;;;9.60;8.00;;;;;12.05;100.00;97762.47;6255072;28;98362;-66
2023/11/02 02:59:28;;;;;;;;;10.00;9.00;;;;;12.11;100.00;97756.06;6246396;28;96580;-64
2023/11/02 03:02:32;;;;;;;;;10.00;9.00;;;;;12.13;100.00;97752.00;6251741;27;97878;-65
2023/11/02 03:05:37;;;;;;;;;12.00;11.00;;;;;12.15;100.00;97749.06;6233486;28;96859;-66
2023/11/02 03:08:44;;;;;;;;;12.60;12.60;;;;;12.10;100.00;97738.22;6247656;28;98281;-65
2023/11/02 03:11:54;;;;;;;;;7.75;6.75;;;;;12.13;100.00;97743.91;6260884;28;96289;-64
2023/11/02 03:15:01;;;;;;;;;8.50;8.00;;;;;12.24;100.00;97749.38;6245950;28;96638;-64
2023/11/02 03:18:09;;;;;;;;;8.00;8.00;;;;;12.25;100.00;97741.03;6232289;27;96629;-62
2023/11/02 03:21:14;;;;;;;;;10.40;9.60;;;;;12.31;100.00;97728.38;6231827;28;97133;-62
2023/11/02 03:24:27;;;;;;;;;5.00;4.60;;;;;12.42;100.00;97732.72;6235289;27;96890;-62
2023/11/02 03:27:44;;;;;;;;;5.80;5.80;;;;;12.57;100.00;97730.13;6246231;27;96364;-62
2023/11/02 03:30:54;;;;;;;;;7.40;7.00;;;;;12.63;100.00;97720.97;6219597;28;96434;-62
2023/11/02 03:34:08;;;;;;;;;10.50;9.50;;;;;12.51;100.00;97714.97;6228899;27;96655;-62
2023/11/02 03:37:19;;;;;;;;;11.00;10.00;;;;;12.35;100.00;97722.19;6234140;28;96639;-62
2023/11/02 03:40:38;;;;;;;;;9.20;8.80;;;;;12.17;100.00;97717.16;6240668;28;96524;-62
2023/11/02 03:43:49;;;;;;;;;11.60;11.00;;;;;12.03;100.00;97716.00;6239072;28;96330;-62
2023/11/02 03:47:04;;;;;;;;;12.00;11.00;;;;;11.91;100.00;97708.09;6226724;27;96847;-62
2023/11/02 03:50:17;;;;;;;;;12.00;11.60;;;;;11.83;100.00;97713.13;6235378;27;96459;-62
2023/11/02 03:53:33;;;;;;;;;15.00;14.00;;;;;11.77;100.00;97711.50;6220467;28;97085;-62
2023/11/02 03:56:55;;;;;;;;;15.60;15.00;;;;;11.68;100.00;97693.00;6241424;28;96511;-62
2023/11/02 04:00:09;;;;;;;;;15.00;14.00;;;;;11.62;100.00;97701.34;6238861;28;96224;-63
2023/11/02 04:03:20;;;;;;;;;13.75;13.00;;;;;11.54;100.00;97697.22;6224872;28;96551;-62
2023/11/02 04:06:38;;;;;;;;;14.00;13.40;;;;;11.53;100.00;97690.19;6223849;28;96608;-62
2023/11/02 04:09:49;;;;;;;;;15.40;15.40;;;;;11.46;100.00;97703.09;6218137;28;96950;-62
2023/11/02 04:13:04;;;;;;;;;13.40;12.00;;;;;11.48;100.00;97694.75;6229914;28;96997;-62
2023/11/02 04:16:08;;;;;;;;;19.00;17.40;;;;;11.49;100.00;97691.78;6214215;28;98338;-63
2023/11/02 04:19:11;;;;;;;;;14.25;14.00;;;;;11.37;100.00;97684.91;6218948;28;96555;-62
2023/11/02 04:22:15;;;;;;;;;15.20;14.60;;;;;11.40;100.00;97662.81;6223133;27;96532;-62
2023/11/02 04:25:18;;;;;;;;;15.20;14.20;;;;;11.42;100.00;97666.09;6217127;27;96542;-66
2023/11/02 04:28:23;;;;;;;;;15.25;15.25;;;;;11.47;100.00;97666.13;6223566;28;96367;-67
2023/11/02 04:31:26;;;;;;;;;13.60;13.20;;;;;11.50;100.00;97669.13;6216918;28;96527;-68
2023/11/02 04:34:29;;;;;;;;;15.80;15.00;;;;;11.50;100.00;97674.50;6219045;28;98463;-68
2023/11/02 04:37:32;;;;;;;;;13.75;13.00;;;;;11.50;100.00;97661.03;6232617;27;97617;-68
2023/11/02 04:40:36;;;;;;;;;17.00;15.40;;;;;11.45;100.00;97662.84;6229778;28;97272;-68
2023/11/02 04:43:40;;;;;;;;;15.60;14.60;;;;;11.51;100.00;97664.53;6220290;28;96603;-67
2023/11/02 04:46:44;;;;;;;;;13.20;13.20;;;;;11.52;100.00;97663.47;6214668;28;96607;-68
2023/11/02 04:49:47;;;;;;;;;11.00;11.00;;;;;11.51;100.00;97665.34;6211219;28;96843;-68
2023/11/02 04:52:50;;;;;;;;;19.40;18.40;;;;;11.50;100.00;97671.00;6229461;27;96543;-68
2023/11/02 04:55:54;;;;;;;;;16.50;15.50;;;;;11.46;100.00;97659.09;6231808;27;96641;-69
2023/11/02 04:58:59;;;;;;;;;15.60;14.60;;;;;11.38;100.00;97640.69;6214099;28;96534;-69
2023/11/02 05:02:05;;;;;;;;;14.00;14.00;;;;;11.45;100.00;97652.06;6213455;28;96766;-69
2023/11/02 05:05:09;;;;;;;;;11.80;10.00;;;;;11.33;100.00;97624.44;6217064;27;97553;-69
2023/11/02 05:08:13;;;;;;;;;13.00;13.00;;;;;11.33;100.00;97616.34;6230398;28;97104;-69
2023/11/02 05:11:17;;;;;;;;;17.25;17.00;;;;;11.35;100.00;97622.28;6220311;28;96277;-69
2023/11/02 05:14:22;;;;;;;;;12.00;12.00;;;;;11.49;100.00;97639.69;6223183;28;97046;-69
2023/11/02 05:17:25;;;;;;;;;16.00;15.40;;;;;11.52;100.00;97634.59;6231125;27;97301;-69
2023/11/02 05:20:28;;;;;;;;;18.20;16.80;;;;;11.49;100.00;97627.00;6248572;27;98908;-68
2023/11/02 05:23:31;;;;;;;;;21.40;20.40;;;;;11.49;100.00;97618.09;6232742;28;96357;-68
2023/11/02 05:26:34;;;;;;;;;18.40;16.60;;;;;11.52;100.00;97620.28;6221305;28;97029;-68
2023/11/02 05:29:39;;;;;;;;;17.00;16.00;;;;;11.51;100.00;97624.06;6228775;28;96915;-68
2023/11/02 05:32:42;;;;;;;;;15.20;14.80;;;;;11.45;100.00;97623.19;6234522;27;96242;-68
2023/11/02 05:35:45;;;;;;;;;17.25;16.25;;;;;11.43;100.00;97625.34;6230642;28;97282;-60
2023/11/02 05:38:49;;;;;;;;;16.20;15.60;;;;;11.43;100.00;97617.25;6219970;28;96377;-61
2023/11/02 05:41:52;;;;;;;;;17.00;16.60;;;;;11.47;100.00;97614.84;6224667;28;97525;-63
2023/11/02 05:44:57;;;;;;;;;14.60;14.60;;;;;11.52;100.00;97621.09;6219251;28;98409;-61
2023/11/02 05:48:00;;;;;;;;;16.00;15.00;;;;;11.59;100.00;97610.88;6227637;28;96736;-61
2023/11/02 05:51:03;;;;;;;;;13.25;12.25;;;;;11.70;100.00;97617.19;6225227;28;96922;-61
2023/11/02 05:54:07;;;;;;;;;13.40;13.00;;;;;11.64;100.00;97610.94;6225822;28;96515;-60
2023/11/02 05:57:11;;;;;;;;;12.00;11.40;;;;;11.59;100.00;97618.97;6227385;28;96661;-62
2023/11/02 06:00:17;;;;;;;;;17.40;16.40;;;;;11.65;100.00;97619.84;6217106;28;96600;-62
2023/11/02 06:03:20;;;;;;;;;15.50;14.50;;;;;11.70;100.00;97603.69;6220889;28;96659;-60
2023/11/02 06:06:24;;;;;;;;;14.00;14.00;;;;;11.73;100.00;97598.59;6223125;28;96671;-61
2023/11/02 06:09:27;;;;;;;;;12.00;12.00;;;;;11.78;100.00;97597.03;6237900;27;96423;-60
2023/11/02 06:12:30;;;;;;;;;9.75;9.75;;;;;11.92;100.00;97588.19;6213077;28;96577;-60
2023/11/02 06:15:35;;;;;;;;;16.00;15.00;;;;;11.76;100.00;97554.06;6222458;28;96718;-60
2023/11/02 06:18:39;;;;;;;;;10.75;10.00;;;;;12.41;100.00;97585.19;6211145;28;96959;-61
2023/11/02 06:21:42;;;;;;;;;17.60;17.40;;;;;13.96;100.00;97584.75;6208758;28;97445;-62
2023/11/02 06:24:45;;;;;;;;;11.00;11.00;;;;;16.07;100.00;97586.41;6234474;28;97113;-61
2023/11/02 06:27:48;;;;;;;;;10.00;9.50;;;;;17.20;100.00;97572.66;6236461;27;96552;-62
2023/11/02 06:30:53;;;;;;;;;10.00;9.40;;;;;17.25;100.00;97567.13;6226869;28;97333;-61
2023/11/02 06:33:56;;;;;;;;;10.40;10.00;;;;;16.93;100.00;97577.16;6216928;28;96929;-62
2023/11/02 06:36:59;;;;;;;;;10.40;10.20;;;;;16.26;100.00;97579.91;6220659;28;96461;-61
2023/11/02 06:40:03;;;;;;;;;10.00;10.00;;;;;15.69;100.00;97575.34;6230524;27;96474;-61
2023/11/02 06:43:06;;;;;;;;;10.40;10.00;;;;;15.26;100.00;97562.66;6220583;28;96546;-61
2023/11/02 06:46:10;;;;;;;;;11.00;9.75;;;;;14.90;100.00;97575.69;6219954;28;96341;-63
2023/11/02 06:49:14;;;;;;;;;10.00;10.00;;;;;14.57;100.00;97552.81;6212872;28;96373;-63
2023/11/02 06:52:17;;;;;;;;;9.00;8.50;;;;;14.52;100.00;97564.50;6213773;28;96616;-63
2023/11/02 06:55:20;;;;;;;;;13.00;11.25;;;;;14.39;100.00;97575.94;6219546;28;97936;-63
2023/11/02 06:58:23;;;;;;;;;12.40;11.80;;;;;14.27;100.00;97561.84;6233490;27;96991;-63
2023/11/02 07:01:30;;;;;;;;;12.00;11.00;;;;;14.17;100.00;97562.72;6239817;27;96503;-63
2023/11/02 07:04:33;;;;;;;;;11.00;10.00;;;;;14.19;100.00;97570.56;6230413;28;96635;-62
2023/11/02 07:07:40;;;;;;;;;11.75;11.00;;;;;14.20;100.00;97570.31;6225866;28;96510;-63
2023/11/02 07:10:43;;;;;;;;;13.00;13.00;;;;;14.26;100.00;97560.25;6239047;28;96271;-63
2023/11/02 07:13:47;;;;;;;;;13.00;12.00;;;;;14.36;100.00;97573.81;6243168;27;96729;-63
2023/11/02 07:16:51;;;;;;;;;12.60;11.60;;;;;14.54;100.00;97564.22;6229036;28;96983;-62
2023/11/02 07:19:54;;;;;;;;;12.40;10.40;;;;;14.82;100.00;97560.81;6232876;28;96465;-62
2023/11/02 07:22:58;;;;;;;;;13.50;11.00;;;;;15.31;100.00;97560.72;6243615;28;96426;-63
2023/11/02 07:26:01;;;;;;;;;11.00;10.00;;;;;16.71;100.00;97550.53;6228143;28;96760;-63
2023/11/02 07:29:04;;;;;;;;;10.00;8.60;;;;;18.77;100.00;97556.13;6217644;28;96613;-63
2023/11/02 07:32:10;;;;;;;;;9.00;9.00;;;;;20.29;100.00;97544.91;6226622;28;96696;-63
2023/11/02 07:35:13;;;;;;;;;9.00;8.25;;;;;20.98;100.00;97547.81;6231778;27;96988;-64
2023/11/02 07:38:17;;;;;;;;;12.00;11.40;;;;;20.94;100.00;97533.16;6235938;28;98556;-63
2023/11/02 07:41:20;;;;;;;;;11.40;11.00;;;;;20.49;100.00;97542.75;6232513;28;96493;-63
2023/11/02 07:44:24;;;;;;;;;11.00;10.00;;;;;19.97;100.00;97534.34;6233685;28;97664;-63
2023/11/02 07:47:28;;;;;;;;;14.00;12.50;;;;;19.59;100.00;97533.19;6237115;28;97003;-63
2023/11/02 07:50:31;;;;;;;;;14.00;12.00;;;;;19.31;100.00;97514.16;6233371;28;98623;-63
2023/11/02 07:53:34;;;;;;;;;14.50;13.00;;;;;19.26;100.00;97502.53;6240546;27;96425;-63
2023/11/02 07:56:37;;;;;;;;;12.00;12.00;;;;;19.52;100.00;97503.53;6252378;28;96327;-66
2023/11/02 07:59:40;;;;;;;;;14.40;13.40;;;;;20.06;100.00;97505.09;6262871;28;99092;-67
2023/11/02 08:02:45;;;;;;;;;11.00;10.75;;;;;20.48;100.00;97511.03;6253709;27;96446;-66
2023/11/02 08:05:48;;;;;;;;;13.00;12.00;;;;;20.53;100.00;97505.38;6261439;28;96336;-66
2023/11/02 08:08:51;;;;;;;;;15.00;13.00;;;;;20.54;100.00;97502.34;6263679;27;96343;-66
2023/11/02 08:11:55;;;;;;;;;18.00;14.00;;;;;21.34;100.00;97489.97;6281266;27;96421;-66
2023/11/02 08:14:58;;;;;;;;;15.00;14.00;;;;;22.50;95.81;97484.19;6260615;28;96504;-66
2023/11/02 08:18:02;;;;;;;;;19.75;17.75;;;;;24.33;86.02;97487.31;6251517;28;96264;-64
2023/11/02 08:21:08;;;;;;;;;17.60;15.60;;;;;26.53;76.12;97469.41;6239118;27;96425;-64
2023/11/02 08:24:11;;;;;;;;;16.00;15.60;;;;;28.30;66.21;97474.88;6232225;28;96730;-64
2023/11/02 08:27:15;;;;;;;;;13.00;13.00;;;;;29.88;55.72;97471.81;6221228;28;97589;-65
2023/11/02 08:30:18;;;;;;;;;13.40;13.00;;;;;30.68;45.54;97470.91;6217219;27;97248;-65
2023/11/02 08:33:23;;;;;;;;;11.00;10.00;;;;;31.25;45.14;97469.25;6239695;28;97016;-65
2023/11/02 08:36:27;;;;;;;;;10.40;9.40;;;;;32.13;42.32;97463.13;6218838;28;97015;-66
2023/11/02 08:39:30;;;;;;;;;9.75;9.75;;;;;33.48;38.65;97458.03;6228165;27;96650;-65
2023/11/02 08:42:36;;;;;;;;;9.60;8.60;;;;;33.16;38.54;97451.03;6210850;28;98629;-64
2023/11/02 08:45:40;;;;;;;;;9.00;9.00;;;;;32.68;39.89;97437.59;6226370;28;96917;-65
2023/11/02 08:48:45;;;;;;;;;9.60;9.60;;;;;32.41;41.22;97448.34;6233535;28;96154;-65
2023/11/02 08:51:48;;;;;;;;;19.40;19.40;;;;;32.46;40.39;97433.22;6235049;27;97545;-65
2023/11/02 08:54:51;;;;;;;;;10.00;9.60;;;;;32.57;40.77;97432.00;6229722;28;97024;-65
2023/11/02 08:57:55;;;;;;;;;9.00;9.00;;;;;33.40;39.71;97433.34;6236691;27;97196;-66
2023/11/02 09:00:58;;;;;;;;;8.00;7.20;;;;;34.30;34.96;97433.19;6236334;28;96354;-66
2023/11/02 09:04:02;;;;;;;;;6.00;6.00;;;;;34.03;33.55;97426.56;6234296;28;96921;-66
2023/11/02 09:07:06;;;;;;;;;5.00;5.00;;;;;34.90;33.78;97426.16;6223794;28;96877;-64
2023/11/02 09:10:09;;;;;;;;;5.80;5.00;;;;;34.69;32.37;97413.22;6247780;28;97575;-64
2023/11/02 09:13:12;;;;;;;;;11.40;10.00;;;;;35.16;34.12;97421.88;6250461;27;96563;-64
2023/11/02 09:16:15;;;;;;;;;8.00;7.40;;;;;35.04;34.71;97408.44;6247081;28;96618;-64
2023/11/02 09:19:20;;;;;;;;;7.00;7.00;;;;;35.35;32.75;97418.44;6243790;28;96324;-63
2023/11/02 09:22:24;;;;;;;;;7.50;7.00;;;;;35.58;32.23;97404.47;6253422;28;96330;-63
2023/11/02 09:25:30;;;;;;;;;9.80;9.00;;;;;36.41;31.43;97404.78;6253945;27;97416;-63
2023/11/02 09:28:34;;;;;;;;;9.40;9.40;;;;;36.86;29.50;97391.91;6234450;28;98739;-63
2023/11/02 09:31:37;;;;;;;;;9.00;8.60;;;;;37.37;28.39;97391.69;6250616;28;96696;-64
2023/11/02 09:34:47;;;;;;;;;7.80;6.00;;;;;37.93;27.37;97395.22;6251244;28;96903;-64
2023/11/02 09:37:50;;;;;;;;;8.40;7.40;;;;;38.66;27.24;97388.94;6257920;27;96946;-64
2023/11/02 09:40:54;;;;;;;;;7.00;7.00;;;;;38.30;25.96;97379.84;6254858;27;96540;-64
2023/11/02 09:43:57;;;;;;;;;7.00;7.00;;;;;38.85;25.14;97387.22;6242230;28;96277;-64
2023/11/02 09:47:00;;;;;;;;;5.60;5.00;;;;;38.57;26.16;97380.34;6259706;27;96653;-64
2023/11/02 09:50:07;;;;;;;;;7.50;6.50;;;;;39.37;25.75;97376.47;6260802;28;96323;-64
2023/11/02 09:53:10;;;;;;;;;6.00;6.00;;;;;39.02;26.03;97366.22;6249479;28;96434;-65
2023/11/02 09:56:14;;;;;;;;;7.00;7.00;;;;;39.46;24.38;97366.53;6255299;28;96897;-65
2023/11/02 09:59:18;;;;;;;;;5.25;5.25;;;;;39.88;24.39;97359.53;6252711;28;97433;-63
2023/11/02 10:02:23;;;;;;;;;4.00;4.00;;;;;39.84;23.61;97350.41;6256612;28;96361;-63
2023/11/02 10:05:29;;;;;;;;;4.60;4.60;;;;;39.37;23.59;97350.28;6251581;28;96370;-64
2023/11/02 10:08:32;;;;;;;;;5.00;5.00;;;;;39.54;24.03;97332.00;6255688;28;99457;-64
2023/11/02 10:11:35;;;;;;;;;3.00;3.00;;;;;39.62;23.92;97329.75;6261469;28;96336;-64
2023/11/02 10:14:38;;;;;;;;;5.00;5.00;;;;;39.22;23.37;97332.22;6262354;28;96459;-64
2023/11/02 10:17:41;;;;;;;;;3.00;3.00;;;;;37.97;23.88;97315.16;6239631;28;97267;-65
2023/11/02 10:20:46;;;;;;;;;3.00;3.00;;;;;37.86;25.08;97316.66;6235723;28;96505;-65
2023/11/02 10:23:51;;;;;;;;;4.00;3.50;;;;;37.81;27.56;97311.56;6226392;27;96640;-66
2023/11/02 10:26:55;;;;;;;;;4.00;4.00;;;;;38.25;27.08;97304.38;6236705;28;96887;-66
2023/11/02 10:29:58;;;;;;;;;5.00;5.00;;;;;38.70;26.66;97282.63;6236693;28;96314;-66
2023/11/02 10:33:07;;;;;;;;;5.00;4.00;;;;;38.50;25.03;97294.06;6236020;28;96925;-66
2023/11/02 10:36:11;;;;;;;;;2.75;2.75;;;;;37.81;24.54;97289.03;6235528;28;97103;-66
2023/11/02 10:39:19;;;;;;;;;3.00;3.00;;;;;35.63;26.27;97279.88;6228562;28;96703;-66
2023/11/02 10:42:24;;;;;;;;;3.80;3.80;;;;;34.53;27.99;97266.66;6234015;28;96556;-66
2023/11/02 10:45:28;;;;;;;;;3.20;3.00;;;;;34.96;27.76;97262.09;6236850;28;96367;-66
2023/11/02 10:48:39;;;;;;;;;3.00;3.00;;;;;35.65;27.48;97252.22;6250486;27;96382;-66
2023/11/02 10:51:47;;;;;;;;;2.00;2.00;;;;;35.15;27.66;97243.78;6233351;28;96662;-66
2023/11/02 10:55:00;;;;;;;;;4.00;4.00;;;;;35.77;27.53;97243.22;6229759;27;97222;-67
2023/11/02 10:58:05;;;;;;;;;3.60;3.00;;;;;36.03;26.78;97231.09;6229106;28;97083;-67
2023/11/02 11:01:10;;;;;;;;;2.00;2.00;;;;;35.85;26.45;97232.66;6250027;27;99071;-66
2023/11/02 11:04:14;;;;;;;;;4.00;4.00;;;;;35.42;26.54;97222.19;6217671;28;96738;-66
2023/11/02 11:07:21;;;;;;;;;2.40;2.00;;;;;35.48;26.94;97223.25;6226649;28;96771;-66
2023/11/02 11:10:24;;;;;;;;;2.00;2.00;;;;;35.10;27.61;97219.84;6235281;28;99001;-66
2023/11/02 11:13:30;;;;;;;;;3.00;3.00;;;;;33.86;29.47;97215.84;6224099;28;97561;-66
2023/11/02 11:16:35;;;;;;;;;3.60;3.60;;;;;35.00;28.79;97217.22;6237185;28;96630;-66
2023/11/02 11:19:38;;;;;;;;;4.00;4.00;;;;;35.12;27.73;97219.44;6236090;28;96423;-67
2023/11/02 11:22:46;;;;;;;;;3.00;2.60;;;;;35.91;26.87;97223.34;6233788;27;96379;-66
2023/11/02 11:25:59;;;;;;;;;2.00;2.00;;;;;36.00;26.75;97220.75;6235597;28;96992;-66
2023/11/02 11:29:33;;;;;;;;;3.00;3.00;;;;;36.03;27.42;97214.28;6235498;27;96598;-67
2023/11/02 11:32:37;;;;;;;;;3.00;3.00;;;;;35.46;27.03;97210.91;6235338;28;96413;-66
2023/11/02 11:36:23;;;;;;;;;3.00;3.00;;;;;36.31;26.38;97203.75;6222715;27;96727;-66
2023/11/02 11:39:36;;;;;;;;;3.00;3.00;;;;;37.04;25.85;97199.75;6231718;27;96471;-66
2023/11/02 11:42:58;;;;;;;;;1.00;1.00;;;;;36.17;26.37;97187.19;6234397;28;97309;-66
2023/11/02 11:46:02;;;;;;;;;2.80;2.00;;;;;36.00;25.96;97183.50;6250922;27;97463;-66
2023/11/02 11:49:05;;;;;;;;;2.00;2.00;;;;;35.55;26.26;97180.31;6223777;28;97069;-66
2023/11/02 11:52:20;;;;;;;;;3.00;2.00;;;;;35.96;25.94;97175.16;6222057;28;97028;-67
2023/11/02 11:55:35;;;;;;;;;2.00;2.00;;;;;36.16;26.25;97180.00;6224689;28;97538;-66
2023/11/02 11:58:48;;;;;;;;;2.60;2.00;;;;;34.62;27.21;97168.97;6214578;28;96428;-66
2023/11/02 12:02:25;;;;;;;;;2.00;2.00;;;;;35.32;27.18;97160.72;6226451;28;97430;-66
2023/11/02 12:05:56;;;;;;;;;4.00;4.00;;;;;33.82;29.00;97161.97;6222084;28;96692;-66
2023/11/02 12:09:00;;;;;;;;;2.00;2.00;;;;;33.94;28.72;97152.25;6215376;28;96374;-66
2023/11/02 12:12:06;;;;;;;;;3.00;3.00;;;;;34.30;29.64;97138.66;6215007;28;96912;-66
2023/11/02 12:15:16;;;;;;;;;2.00;2.00;;;;;34.39;30.29;97138.91;6225725;28;97035;-66
2023/11/02 12:18:24;;;;;;;;;2.00;2.00;;;;;34.13;29.01;97137.63;6214636;28;96782;-67
2023/11/02 12:21:27;;;;;;;;;2.75;2.75;;;;;33.06;30.46;97121.19;6236965;28;96503;-66
2023/11/02 12:24:30;;;;;;;;;3.00;3.00;;;;;32.76;32.53;97123.81;6239495;28;96477;-66
2023/11/02 12:27:35;;;;;;;;;3.00;3.00;;;;;31.76;34.09;97098.44;6229876;28;96706;-66
2023/11/02 12:30:42;;;;;;;;;3.20;3.20;;;;;31.47;35.52;97102.50;6213072;28;98609;-66
2023/11/02 12:33:48;;;;;;;;;2.00;2.00;;;;;30.58;38.07;97090.63;6213905;28;96742;-66
2023/11/02 12:36:52;;;;;;;;;7.00;7.00;;;;;30.25;38.50;97090.94;6233071;28;96459;-62
2023/11/02 12:40:00;;;;;;;;;5.00;4.00;;;;;30.24;42.09;97073.47;6246818;28;96278;-62
2023/11/02 12:43:05;;;;;;;;;4.00;4.00;;;;;29.96;40.91;97068.63;6234101;28;98464;-62
2023/11/02 12:46:10;;;;;;;;;5.50;5.50;;;;;29.71;44.04;97051.06;6251506;28;97876;-62
2023/11/02 12:49:16;;;;;;;;;4.00;4.00;;;;;29.08;44.40;97049.50;6245218;28;96772;-62
2023/11/02 12:52:20;;;;;;;;;6.33;6.00;;;;;29.32;46.54;97042.56;6226673;28;98725;-63
2023/11/02 12:55:25;;;;;;;;;2.80;2.80;;;;;29.29;45.62;97034.97;6241813;28;97130;-61
2023/11/02 12:58:30;;;;;;;;;4.00;4.00;;;;;29.15;48.79;97032.94;6247766;27;96208;-63
2023/11/02 13:01:47;;;;;;;;;6.00;4.60;;;;;29.05;48.47;97030.09;6217641;28;96966;-62
2023/11/02 13:04:55;;;;;;;;;5.40;5.40;;;;;28.71;49.32;97032.22;6252181;27;96309;-61
2023/11/02 13:07:58;;;;;;;;;3.00;3.00;;;;;28.37;48.79;97026.00;6251201;28;96853;-61
2023/11/02 13:11:01;;;;;;;;;3.60;3.00;;;;;26.99;56.26;97041.75;6250120;27;96439;-62
2023/11/02 13:14:06;;;;;;;;;4.40;4.40;;;;;26.37;55.95;97045.88;6251438;27;97699;-62
2023/11/02 13:17:12;;;;;;;;;7.00;6.00;;;;;26.05;58.81;97039.75;6253527;28;96251;-62
2023/11/02 13:20:18;;;;;;;;;4.00;4.00;;;;;25.95;61.59;97028.53;6254638;28;96735;-61
2023/11/02 13:23:21;;;;;;;;;6.00;5.20;;;;;25.64;62.93;97035.06;6243057;27;96206;-61
2023/11/02 13:26:25;;;;;;;;;4.00;4.00;;;;;25.11;65.35;97023.69;6254370;27;96896;-61
2023/11/02 13:29:30;;;;;;;;;6.00;5.25;;;;;24.64;72.16;97022.97;6253636;27;96378;-62
2023/11/02 13:32:33;;;;;;;;;3.80;3.80;;;;;24.55;73.83;97034.19;6244806;27;96810;-61
2023/11/02 13:35:36;;;;;;;;;3.40;3.40;;;;;24.38;76.27;97023.56;6260152;27;96711;-61
2023/11/02 13:38:40;;;;;;;;;3.00;3.00;;;;;24.00;78.78;97026.88;6245339;28;96720;-63
2023/11/02 13:41:43;;;;;;;;;3.75;3.75;;;;;24.04;79.35;97033.28;6237826;28;96683;-60
2023/11/02 13:44:48;;;;;;;;;2.60;2.60;;;;;23.61;81.45;97032.13;6242084;28;97227;-60
2023/11/02 13:47:52;;;;;;;;;4.00;4.00;;;;;23.30;83.00;97032.81;6239141;28;96407;-64
2023/11/02 13:50:56;;;;;;;;;2.40;2.40;;;;;23.18;83.92;97027.34;6236058;28;96479;-64
2023/11/02 13:53:59;;;;;;;;;1.00;1.00;;;;;22.97;85.25;97025.94;6227381;28;97637;-64
2023/11/02 13:57:03;;;;;;;;;1.00;1.00;;;;;22.82;86.12;97002.72;6236134;28;96483;-64
2023/11/02 14:00:11;;;;;;;;;3.00;3.00;;;;;22.92;85.12;97009.69;6237350;27;96660;-64
2023/11/02 14:03:15;;;;;;;;;4.50;4.00;;;;;22.59;87.51;97005.09;6229941;28;97385;-64
2023/11/02 14:06:19;;;;;;;;;4.00;4.00;;;;;22.62;86.43;97007.19;6233060;27;96826;-64
2023/11/02 14:09:22;;;;;;;;;1.00;1.00;;;;;22.61;87.34;97002.03;6232714;28;96395;-64
2023/11/02 14:12:25;;;;;;;;;2.80;2.20;;;;;22.77;86.73;97006.47;6221121;27;97538;-64
2023/11/02 14:15:31;;;;;;;;;2.00;2.00;;;;;22.42;88.38;97008.91;6225963;28;96777;-64
2023/11/02 14:18:34;;;;;;;;;3.00;3.00;;;;;22.32;89.12;97000.34;6235744;28;96335;-64
2023/11/02 14:21:37;;;;;;;;;7.00;6.00;;;;;21.63;92.60;96998.38;6232985;27;96669;-64